Time;durP1;ratioP1;P1;durP2;ratioP2;P2;SDS_P1;SDS_P2;PMS_P1;PMS_P2;Temp;Humidity;BMP_temperature;BMP_pressure;BME280_temperature;BME280_humidity;BME280_pressure;Samples;Min_cycle;Max_cycle;Signal;HPM_P1;HPM_P2
2022/10/17 00:02:00;;;;;;;4.72;1.00;;;16.10;99.90;;;;;;5052180;28;20440;-90
2022/10/17 00:04:26;;;;;;;1.55;1.35;;;16.00;99.90;;;;;;5053627;28;20539;-90
2022/10/17 00:06:51;;;;;;;2.55;1.30;;;15.80;99.90;;;;;;5045332;28;20064;-93
2022/10/17 00:09:17;;;;;;;2.00;1.58;;;15.70;99.90;;;;;;5044145;28;20049;-89
2022/10/17 00:11:43;;;;;;;5.32;1.70;;;15.60;99.90;;;;;;5069183;28;20108;-91
2022/10/17 00:14:08;;;;;;;4.15;1.65;;;15.70;99.90;;;;;;5063545;28;20388;-92
2022/10/17 00:16:38;;;;;;;1.40;1.00;;;15.70;99.90;;;;;;5061683;28;20036;-92
2022/10/17 00:19:05;;;;;;;2.15;1.40;;;15.70;99.90;;;;;;5064495;28;20027;-91
2022/10/17 00:21:31;;;;;;;1.40;1.30;;;15.80;99.90;;;;;;5062270;28;20442;-90
2022/10/17 00:23:59;;;;;;;4.78;1.30;;;15.90;99.90;;;;;;5062383;28;20043;-92
2022/10/17 00:26:27;;;;;;;3.30;1.35;;;16.00;99.90;;;;;;5070773;28;20036;-92
2022/10/17 00:28:53;;;;;;;2.13;1.33;;;16.10;99.90;;;;;;5054604;28;20033;-92
2022/10/17 00:31:21;;;;;;;1.65;1.30;;;16.20;99.90;;;;;;5054414;28;20466;-91
2022/10/17 00:33:47;;;;;;;5.43;1.33;;;16.30;99.90;;;;;;5056183;28;20094;-92
2022/10/17 00:36:24;;;;;;;1.90;1.25;;;16.30;99.90;;;;;;5068186;28;20024;-92
2022/10/17 00:38:53;;;;;;;5.68;1.17;;;16.40;99.90;;;;;;5052625;28;20032;-92
2022/10/17 00:41:22;;;;;;;5.55;1.20;;;16.50;99.90;;;;;;5053977;28;20039;-92
2022/10/17 00:43:58;;;;;;;3.83;1.38;;;16.40;99.90;;;;;;5069042;28;20470;-92
2022/10/17 00:46:35;;;;;;;3.17;1.90;;;16.40;99.90;;;;;;5071709;28;20489;-92
2022/10/17 00:49:05;;;;;;;4.28;1.35;;;16.40;99.90;;;;;;5051814;28;20061;-92
2022/10/17 00:51:44;;;;;;;1.23;1.13;;;16.30;99.90;;;;;;5055049;28;20028;-91
2022/10/17 00:54:13;;;;;;;6.28;1.83;;;16.10;99.90;;;;;;5064317;28;20470;-91
2022/10/17 00:56:39;;;;;;;1.50;1.40;;;15.90;99.90;;;;;;5050998;28;20028;-92
2022/10/17 00:59:07;;;;;;;1.50;1.40;;;15.80;99.90;;;;;;5064366;28;20538;-91
2022/10/17 01:01:33;;;;;;;2.78;1.40;;;15.60;99.90;;;;;;5051888;28;20075;-90
2022/10/17 01:03:59;;;;;;;2.67;1.60;;;15.50;99.90;;;;;;5042719;28;20032;-91
2022/10/17 01:06:24;;;;;;;3.38;1.58;;;15.40;99.90;;;;;;5061917;28;20032;-91
2022/10/17 01:08:50;;;;;;;3.78;2.25;;;15.30;99.90;;;;;;5069679;28;20037;-89
2022/10/17 01:11:31;;;;;;;3.53;1.60;;;15.20;99.90;;;;;;5059245;28;20482;-92
2022/10/17 01:14:10;;;;;;;1.70;1.60;;;15.10;99.90;;;;;;5051550;28;20469;-91
2022/10/17 01:17:01;;;;;;;1.50;1.40;;;15.00;99.90;;;;;;5031361;28;20529;-92
2022/10/17 01:19:48;;;;;;;1.67;1.50;;;14.80;99.90;;;;;;5044653;28;20032;-91
2022/10/17 01:22:41;;;;;;;1.40;1.30;;;14.80;99.90;;;;;;5059347;28;20025;-92
2022/10/17 01:25:34;;;;;;;2.45;1.40;;;14.70;99.90;;;;;;5061521;28;20179;-92
2022/10/17 01:28:29;;;;;;;1.55;1.40;;;14.60;99.90;;;;;;5065257;28;20025;-92
2022/10/17 01:31:04;;;;;;;2.15;1.38;;;14.50;99.90;;;;;;5046938;28;20037;-92
2022/10/17 01:34:03;;;;;;;2.45;1.50;;;14.40;99.90;;;;;;5052491;28;20041;-90
2022/10/17 01:37:01;;;;;;;3.13;1.40;;;14.40;99.90;;;;;;5031232;28;20038;-92
2022/10/17 01:39:48;;;;;;;4.22;2.10;;;14.30;99.90;;;;;;5038999;28;20032;-90
2022/10/17 01:42:27;;;;;;;2.75;1.55;;;14.40;99.90;;;;;;5063077;28;20033;-90
2022/10/17 01:45:08;;;;;;;5.88;1.75;;;14.50;99.90;;;;;;5049076;28;20037;-93
2022/10/17 01:47:34;;;;;;;5.35;1.90;;;14.60;99.90;;;;;;5045008;28;20021;-92
2022/10/17 01:50:06;;;;;;;9.20;2.15;;;14.70;99.90;;;;;;5060687;28;20029;-90
2022/10/17 01:52:43;;;;;;;2.30;1.63;;;14.90;99.90;;;;;;5065818;28;20055;-92
2022/10/17 01:55:13;;;;;;;2.42;1.90;;;15.20;99.90;;;;;;5060000;28;20435;-94
2022/10/17 01:57:48;;;;;;;3.53;1.60;;;15.40;99.90;;;;;;5060122;28;20108;-90
2022/10/17 02:00:19;;;;;;;3.35;1.75;;;15.50;99.90;;;;;;5059983;28;20033;-92
2022/10/17 02:02:48;;;;;;;3.25;1.58;;;15.60;99.90;;;;;;5056897;28;20057;-93
2022/10/17 02:05:17;;;;;;;2.35;1.83;;;15.80;99.90;;;;;;5050804;28;20029;-92
2022/10/17 02:07:43;;;;;;;3.47;2.25;;;15.90;99.90;;;;;;5067988;28;20090;-92
2022/10/17 02:10:18;;;;;;;2.28;1.83;;;15.90;99.90;;;;;;5056983;28;20032;-93
2022/10/17 02:13:07;;;;;;;5.53;2.15;;;16.00;99.90;;;;;;5049139;28;20047;-92
2022/10/17 02:15:58;;;;;;;1.38;1.27;;;16.10;99.90;;;;;;5069660;28;20115;-92
2022/10/17 02:18:42;;;;;;;14.40;1.95;;;16.20;99.90;;;;;;5068001;28;20496;-91
2022/10/17 02:21:18;;;;;;;9.07;1.98;;;16.30;99.90;;;;;;5030693;28;20112;-93
2022/10/17 02:23:59;;;;;;;4.20;1.80;;;16.40;99.90;;;;;;5050057;28;20048;-91
2022/10/17 02:26:31;;;;;;;5.00;2.35;;;16.40;99.90;;;;;;5049342;28;20029;-92
2022/10/17 02:29:03;;;;;;;3.88;1.60;;;16.40;99.90;;;;;;5061198;28;20048;-93
2022/10/17 02:31:42;;;;;;;6.47;2.17;;;16.50;99.90;;;;;;5070620;28;20024;-91
2022/10/17 02:34:31;;;;;;;1.60;1.50;;;16.40;99.90;;;;;;5057032;28;20463;-93
2022/10/17 02:37:00;;;;;;;1.75;1.50;;;16.40;99.90;;;;;;5048138;28;20082;-92
2022/10/17 02:39:28;;;;;;;2.88;1.70;;;16.40;99.90;;;;;;5046326;28;20111;-93
2022/10/17 02:41:56;;;;;;;1.45;1.35;;;16.30;99.90;;;;;;5043559;28;20466;-93
2022/10/17 02:44:23;;;;;;;6.80;1.92;;;16.20;99.90;;;;;;5048845;28;20021;-91
2022/10/17 02:47:06;;;;;;;2.10;1.90;;;16.10;99.90;;;;;;5054801;28;20040;-91
2022/10/17 02:49:37;;;;;;;2.67;1.40;;;16.00;99.90;;;;;;5044899;28;20084;-90
2022/10/17 02:52:15;;;;;;;2.15;1.95;;;16.00;99.90;;;;;;5048204;28;20527;-91
2022/10/17 02:54:52;;;;;;;1.77;1.52;;;15.90;99.90;;;;;;5061919;28;20036;-92
2022/10/17 02:57:52;;;;;;;9.02;1.92;;;16.00;99.90;;;;;;5058751;28;20039;-91
2022/10/17 03:00:20;;;;;;;3.97;1.85;;;15.90;99.90;;;;;;4993034;28;20033;-91
2022/10/17 03:02:51;;;;;;;4.43;1.75;;;16.00;99.90;;;;;;5073696;28;20047;-90
2022/10/17 03:05:23;;;;;;;4.88;1.63;;;16.10;99.90;;;;;;5041373;28;20389;-90
2022/10/17 03:07:55;;;;;;;2.88;1.67;;;16.20;99.90;;;;;;5073823;28;20431;-92
2022/10/17 03:10:21;;;;;;;8.00;1.83;;;16.20;99.90;;;;;;5053244;28;20033;-90
2022/10/17 03:12:47;;;;;;;11.40;1.90;;;16.40;99.90;;;;;;5053466;28;20028;-91
2022/10/17 03:15:13;;;;;;;1.73;1.58;;;16.50;99.90;;;;;;5068139;28;20544;-93
2022/10/17 03:17:39;;;;;;;4.22;1.85;;;16.50;99.90;;;;;;5064037;28;20074;-92
2022/10/17 03:20:06;;;;;;;2.28;1.52;;;16.50;99.90;;;;;;5053684;28;20037;-92
2022/10/17 03:22:31;;;;;;;13.98;4.05;;;16.60;99.90;;;;;;5070681;28;20029;-90
2022/10/17 03:24:57;;;;;;;1.67;1.58;;;16.70;99.90;;;;;;5073658;28;20031;-91
2022/10/17 03:27:24;;;;;;;6.40;1.55;;;16.80;99.90;;;;;;5059994;28;20024;-90
2022/10/17 03:30:00;;;;;;;5.70;2.22;;;16.90;99.90;;;;;;5052738;28;20025;-90
2022/10/17 03:32:44;;;;;;;2.38;1.60;;;16.90;99.90;;;;;;5051463;28;20506;-91
2022/10/17 03:36:10;;;;;;;5.70;1.98;;;17.00;99.90;;;;;;5033190;28;20497;-91
2022/10/17 03:38:38;;;;;;;3.53;1.73;;;17.00;99.90;;;;;;5050639;28;20055;-92
2022/10/17 03:41:38;;;;;;;4.65;1.50;;;17.00;99.90;;;;;;5045650;28;20055;-91
2022/10/17 03:47:39;;;;;;;6.00;2.22;;;17.00;99.90;;;;;;5055319;28;20043;-92
2022/10/17 03:53:14;;;;;;;2.03;1.77;;;17.00;99.90;;;;;;5052628;28;20067;-89
2022/10/17 03:55:48;;;;;;;3.80;1.70;;;16.90;99.90;;;;;;5049427;28;20335;-90
2022/10/17 03:58:45;;;;;;;5.47;2.17;;;16.90;99.90;;;;;;5049100;28;20099;-91
2022/10/17 04:01:14;;;;;;;2.30;2.00;;;17.00;99.90;;;;;;5049162;28;20037;-90
2022/10/17 04:04:07;;;;;;;2.42;1.60;;;16.90;99.90;;;;;;5070862;28;20028;-89
2022/10/17 04:06:43;;;;;;;1.65;1.55;;;17.00;99.90;;;;;;5053809;28;20048;-90
2022/10/17 04:10:04;;;;;;;6.18;1.65;;;17.00;99.90;;;;;;5052416;28;20035;-91
2022/10/17 04:13:00;;;;;;;2.00;1.80;;;16.90;99.90;;;;;;5057345;28;20508;-90
2022/10/17 04:19:40;;;;;;;5.95;1.80;;;16.80;99.90;;;;;;4983524;28;20040;-90
2022/10/17 04:22:07;;;;;;;4.05;1.90;;;16.70;99.90;;;;;;5030786;28;20079;-91
2022/10/17 04:24:39;;;;;;;8.88;2.13;;;16.60;99.90;;;;;;5068706;28;20150;-91
2022/10/17 04:27:32;;;;;;;5.35;2.10;;;16.60;99.90;;;;;;5054819;28;20037;-91
2022/10/17 04:30:28;;;;;;;5.95;2.35;;;16.60;99.90;;;;;;5033849;28;20037;-92
2022/10/17 04:32:57;;;;;;;5.43;2.53;;;16.60;99.90;;;;;;5057473;28;20033;-90
2022/10/17 04:35:23;;;;;;;4.00;2.22;;;16.70;99.90;;;;;;5064594;28;20052;-91
2022/10/17 04:37:55;;;;;;;4.72;2.60;;;16.80;99.90;;;;;;5060150;28;20316;-91
2022/10/17 04:40:21;;;;;;;5.00;2.20;;;16.80;99.90;;;;;;5069638;28;20505;-91
2022/10/17 04:42:46;;;;;;;5.15;2.03;;;16.90;99.90;;;;;;5064899;28;20020;-90
2022/10/17 04:45:12;;;;;;;4.57;2.22;;;16.90;99.90;;;;;;5054830;28;20447;-92
2022/10/17 04:47:38;;;;;;;4.50;1.90;;;17.00;99.90;;;;;;5059924;28;20035;-90
2022/10/17 04:50:05;;;;;;;11.18;1.73;;;17.00;99.90;;;;;;5057014;28;20064;-91
2022/10/17 04:52:36;;;;;;;2.17;1.60;;;17.00;99.90;;;;;;5052330;28;20399;-90
2022/10/17 04:55:03;;;;;;;2.35;1.90;;;16.90;99.90;;;;;;5065080;28;20032;-90
2022/10/17 04:57:34;;;;;;;5.10;1.80;;;16.80;99.90;;;;;;5061021;28;20096;-91
2022/10/17 05:00:00;;;;;;;14.57;2.20;;;16.70;99.90;;;;;;5061086;28;20036;-91
2022/10/17 05:02:28;;;;;;;5.68;2.22;;;16.70;99.90;;;;;;5058784;28;20382;-91
2022/10/17 05:04:54;;;;;;;2.85;1.63;;;16.60;99.90;;;;;;5050373;28;20029;-91
2022/10/17 05:07:29;;;;;;;7.90;2.05;;;16.50;99.90;;;;;;5057864;28;20032;-89
2022/10/17 05:09:54;;;;;;;4.32;2.22;;;16.50;99.90;;;;;;5034379;28;20473;-93
2022/10/17 05:12:20;;;;;;;2.72;2.08;;;16.40;99.90;;;;;;5071299;28;20032;-92
2022/10/17 05:14:46;;;;;;;2.42;1.90;;;16.40;99.90;;;;;;5069535;28;20423;-91
2022/10/17 05:17:11;;;;;;;3.25;2.08;;;16.40;99.90;;;;;;5070525;28;20024;-92
2022/10/17 05:19:37;;;;;;;8.15;2.00;;;16.30;99.90;;;;;;5067927;28;20032;-92
2022/10/17 05:22:02;;;;;;;4.18;2.80;;;16.20;99.90;;;;;;5071135;28;20024;-91
2022/10/17 05:24:34;;;;;;;2.83;2.20;;;16.30;99.90;;;;;;5068660;28;20032;-92
2022/10/17 05:26:59;;;;;;;9.60;2.78;;;16.30;99.90;;;;;;5065536;28;20040;-92
2022/10/17 05:29:31;;;;;;;2.83;2.00;;;16.30;99.90;;;;;;5070986;28;20413;-91
2022/10/17 05:31:57;;;;;;;5.22;2.75;;;16.30;99.90;;;;;;5066953;28;20025;-93
2022/10/17 05:34:23;;;;;;;4.00;2.45;;;16.40;99.90;;;;;;5068332;28;20135;-91
2022/10/17 05:36:49;;;;;;;5.35;2.17;;;16.40;99.90;;;;;;5037701;28;20501;-92
2022/10/17 05:39:18;;;;;;;4.38;2.50;;;16.50;99.90;;;;;;5049642;28;20033;-90
2022/10/17 05:41:44;;;;;;;4.30;1.90;;;16.60;99.90;;;;;;5061602;28;20086;-91
2022/10/17 05:44:10;;;;;;;8.07;2.92;;;16.60;99.90;;;;;;5065703;28;20033;-92
2022/10/17 05:46:39;;;;;;;13.63;2.83;;;16.60;99.90;;;;;;5070594;28;20066;-91
2022/10/17 05:49:05;;;;;;;5.53;2.67;;;16.60;99.90;;;;;;5065011;28;20112;-90
2022/10/17 05:51:39;;;;;;;4.00;2.33;;;16.70;99.90;;;;;;5070940;28;20108;-91
2022/10/17 05:54:06;;;;;;;3.83;2.28;;;16.90;99.90;;;;;;5068806;28;20032;-91
2022/10/17 05:56:32;;;;;;;4.32;2.67;;;17.00;99.90;;;;;;5039285;28;20095;-91
2022/10/17 05:58:58;;;;;;;2.25;1.90;;;17.00;99.90;;;;;;5049416;28;20025;-90
2022/10/17 06:01:23;;;;;;;4.88;2.38;;;17.00;99.90;;;;;;5059446;28;20085;-91
2022/10/17 06:03:49;;;;;;;4.15;2.20;;;17.00;99.90;;;;;;5066348;28;20659;-91
2022/10/17 06:06:16;;;;;;;7.18;2.65;;;17.00;99.90;;;;;;5070576;28;20037;-89
2022/10/17 06:08:42;;;;;;;6.75;2.53;;;17.00;99.90;;;;;;5050773;28;20029;-91
2022/10/17 06:11:07;;;;;;;6.30;2.17;;;17.00;99.90;;;;;;5066775;28;20633;-89
2022/10/17 06:13:33;;;;;;;4.13;2.38;;;17.00;99.90;;;;;;5067723;28;20042;-91
2022/10/17 06:15:59;;;;;;;4.30;2.03;;;17.10;99.90;;;;;;5068816;28;20028;-90
2022/10/17 06:18:25;;;;;;;7.15;2.20;;;17.10;99.90;;;;;;5055078;28;20032;-90
2022/10/17 06:20:51;;;;;;;8.20;2.40;;;17.10;99.90;;;;;;5070417;28;20586;-91
2022/10/17 06:23:17;;;;;;;6.25;2.30;;;17.10;99.90;;;;;;5068248;28;20390;-90
2022/10/17 06:25:43;;;;;;;3.90;2.17;;;17.20;99.90;;;;;;5061394;28;20045;-91
2022/10/17 06:28:10;;;;;;;4.55;2.80;;;17.40;99.90;;;;;;5069580;28;20378;-93
2022/10/17 06:30:38;;;;;;;8.80;2.70;;;17.50;99.90;;;;;;5072259;28;20022;-88
2022/10/17 06:33:04;;;;;;;3.65;1.90;;;17.60;99.90;;;;;;5071594;28;20033;-90
2022/10/17 06:35:33;;;;;;;7.72;2.40;;;17.70;99.90;;;;;;5072041;28;20186;-91
2022/10/17 06:37:58;;;;;;;3.33;2.50;;;17.70;99.90;;;;;;5074402;28;20029;-88
2022/10/17 06:40:24;;;;;;;3.20;2.22;;;17.70;99.90;;;;;;5069796;28;20479;-91
2022/10/17 06:42:49;;;;;;;3.13;2.05;;;17.90;99.90;;;;;;5069451;28;20036;-89
2022/10/17 06:45:15;;;;;;;3.40;1.80;;;17.90;99.90;;;;;;5071896;28;20024;-88
2022/10/17 06:47:40;;;;;;;11.07;2.20;;;18.00;99.90;;;;;;5070386;28;20036;-91
2022/10/17 06:50:07;;;;;;;5.80;2.20;;;18.10;99.90;;;;;;5069702;28;20125;-90
2022/10/17 06:52:36;;;;;;;14.60;2.80;;;18.20;99.90;;;;;;5070127;28;20214;-90
2022/10/17 06:55:02;;;;;;;5.15;2.40;;;18.30;99.90;;;;;;5053780;28;20025;-89
2022/10/17 06:57:27;;;;;;;6.75;2.53;;;18.40;99.90;;;;;;5053111;28;20032;-89
2022/10/17 06:59:54;;;;;;;8.52;2.47;;;18.40;99.90;;;;;;5071392;28;20032;-91
2022/10/17 07:02:20;;;;;;;12.23;2.35;;;18.40;99.90;;;;;;5036735;28;20500;-90
2022/10/17 07:04:46;;;;;;;8.20;2.55;;;18.40;99.90;;;;;;5053508;28;20033;-91
2022/10/17 07:07:12;;;;;;;4.35;2.08;;;18.50;99.90;;;;;;5063186;28;20075;-90
2022/10/17 07:09:40;;;;;;;5.40;2.08;;;18.50;99.90;;;;;;5053161;28;20033;-89
2022/10/17 07:12:07;;;;;;;15.15;2.65;;;18.50;99.90;;;;;;5058055;28;20079;-89
2022/10/17 07:14:39;;;;;;;11.95;2.22;;;18.70;99.90;;;;;;5065606;28;20081;-93
2022/10/17 07:17:04;;;;;;;7.18;2.40;;;18.70;99.90;;;;;;5052675;28;20071;-89
2022/10/17 07:19:33;;;;;;;8.15;2.05;;;18.80;99.90;;;;;;5073261;28;20040;-89
2022/10/17 07:21:59;;;;;;;15.98;2.50;;;18.80;99.90;;;;;;5073718;28;20020;-90
2022/10/17 07:24:25;;;;;;;4.68;2.70;;;18.90;99.90;;;;;;5073441;28;20040;-90
2022/10/17 07:26:51;;;;;;;9.77;2.10;;;18.90;99.90;;;;;;5073218;28;20041;-92
2022/10/17 07:29:16;;;;;;;4.63;2.20;;;18.90;99.90;;;;;;5073653;28;20024;-89
2022/10/17 07:31:44;;;;;;;7.82;2.30;;;19.00;99.90;;;;;;5073336;28;20024;-91
2022/10/17 07:34:10;;;;;;;5.85;2.05;;;19.00;99.90;;;;;;5073127;28;20036;-91
2022/10/17 07:36:41;;;;;;;6.45;2.67;;;19.10;99.90;;;;;;5073034;28;20051;-90
2022/10/17 07:39:07;;;;;;;3.83;1.85;;;19.10;99.90;;;;;;5071887;28;20059;-89
2022/10/17 07:41:33;;;;;;;9.68;2.17;;;19.10;99.90;;;;;;5072678;28;20071;-90
2022/10/17 07:43:58;;;;;;;5.80;2.63;;;19.10;99.90;;;;;;5073637;28;20048;-91
2022/10/17 07:46:24;;;;;;;5.72;2.38;;;19.10;99.90;;;;;;5073484;28;20039;-89
2022/10/17 07:48:50;;;;;;;5.20;2.25;;;19.10;99.90;;;;;;5073169;28;20393;-89
2022/10/17 07:51:17;;;;;;;5.65;2.42;;;19.10;99.90;;;;;;5073068;28;20036;-92
2022/10/17 07:53:44;;;;;;;13.13;3.10;;;19.20;99.90;;;;;;5072806;28;20028;-92
2022/10/17 07:56:10;;;;;;;9.90;2.05;;;19.20;99.90;;;;;;5073015;28;20063;-89
2022/10/17 07:58:38;;;;;;;8.35;2.22;;;19.20;99.90;;;;;;5072615;28;20029;-90
2022/10/17 08:01:07;;;;;;;6.38;2.35;;;19.20;99.90;;;;;;5072944;28;20028;-89
2022/10/17 08:03:40;;;;;;;9.88;2.13;;;19.30;99.90;;;;;;5072514;28;20485;-88
2022/10/17 08:06:06;;;;;;;8.73;2.65;;;19.30;99.90;;;;;;5072657;28;20366;-90
2022/10/17 08:08:37;;;;;;;4.97;2.25;;;19.30;99.90;;;;;;5072625;28;20032;-92
2022/10/17 08:11:06;;;;;;;6.15;2.33;;;19.40;99.90;;;;;;5072674;28;20056;-92
2022/10/17 08:13:35;;;;;;;5.95;2.30;;;19.30;99.90;;;;;;5072420;28;20366;-88
2022/10/17 08:16:02;;;;;;;5.30;2.53;;;19.30;99.90;;;;;;5073144;28;20100;-89
2022/10/17 08:18:28;;;;;;;8.50;2.15;;;19.40;99.90;;;;;;5072632;28;20108;-89
2022/10/17 08:20:54;;;;;;;4.28;2.28;;;19.50;99.90;;;;;;5072267;28;20457;-91
2022/10/17 08:23:20;;;;;;;7.13;2.33;;;19.40;99.90;;;;;;5072433;28;20574;-91
2022/10/17 08:25:45;;;;;;;4.78;2.72;;;19.50;99.90;;;;;;5072043;28;20119;-92
2022/10/17 08:28:11;;;;;;;7.28;2.47;;;19.50;99.90;;;;;;5054443;28;20020;-85
2022/10/17 08:30:37;;;;;;;12.07;2.47;;;19.60;99.90;;;;;;5062980;28;20044;-88
2022/10/17 08:33:02;;;;;;;2.92;1.98;;;19.70;99.90;;;;;;5055003;28;20083;-88
2022/10/17 08:35:28;;;;;;;7.30;2.60;;;19.70;99.90;;;;;;5056723;28;20402;-89
2022/10/17 08:37:54;;;;;;;4.20;2.80;;;19.80;99.90;;;;;;5062054;28;20033;-87
2022/10/17 08:40:27;;;;;;;9.15;2.53;;;19.80;99.90;;;;;;5057052;28;20049;-89
2022/10/17 08:43:30;;;;;;;8.20;2.50;;;19.80;99.90;;;;;;5041814;28;20032;-88
2022/10/17 08:46:05;;;;;;;9.35;3.33;;;19.80;99.90;;;;;;5045450;28;20132;-89
2022/10/17 08:48:42;;;;;;;11.60;4.00;;;19.90;99.90;;;;;;5066233;28;20063;-91
2022/10/17 08:51:12;;;;;;;6.57;4.97;;;20.10;99.90;;;;;;5063535;28;20412;-90
2022/10/17 08:53:55;;;;;;;8.98;6.13;;;20.10;99.90;;;;;;5067935;28;20029;-91
2022/10/17 08:56:32;;;;;;;9.68;5.00;;;20.10;99.90;;;;;;5068529;28;20032;-89
2022/10/17 08:58:58;;;;;;;9.82;5.22;;;20.30;99.90;;;;;;5065123;28;20032;-92
2022/10/17 09:01:32;;;;;;;10.43;5.03;;;20.20;99.90;;;;;;5068439;28;20484;-89
2022/10/17 09:04:03;;;;;;;16.38;5.50;;;20.30;99.90;;;;;;5063047;28;20453;-93
2022/10/17 09:06:53;;;;;;;8.98;4.95;;;20.40;99.90;;;;;;5069389;28;20383;-91
2022/10/17 09:09:40;;;;;;;16.20;4.68;;;20.50;99.90;;;;;;5032406;28;20040;-90
2022/10/17 09:12:41;;;;;;;7.10;4.10;;;20.60;99.90;;;;;;5064608;28;20032;-90
2022/10/17 09:15:28;;;;;;;17.08;3.88;;;20.60;99.90;;;;;;5007834;28;20046;-91
2022/10/17 09:18:11;;;;;;;6.22;3.00;;;20.60;99.90;;;;;;5048246;28;20040;-92
2022/10/17 09:21:04;;;;;;;8.98;2.95;;;20.60;99.90;;;;;;5050625;28;20055;-89
2022/10/17 09:23:56;;;;;;;5.13;2.58;;;20.70;99.90;;;;;;5049417;28;20040;-90
2022/10/17 09:26:24;;;;;;;3.80;1.98;;;20.70;99.90;;;;;;5046485;28;20052;-90
2022/10/17 09:28:57;;;;;;;4.80;2.15;;;20.70;99.90;;;;;;5047945;28;20588;-92
2022/10/17 09:31:28;;;;;;;6.72;1.92;;;20.80;99.90;;;;;;5049831;28;20446;-90
2022/10/17 09:33:56;;;;;;;3.95;2.50;;;20.80;99.90;;;;;;5050946;28;20102;-90
2022/10/17 09:36:36;;;;;;;7.22;2.33;;;20.80;99.90;;;;;;5050608;28;20477;-89
2022/10/17 09:39:13;;;;;;;7.00;2.15;;;20.80;99.90;;;;;;5050931;28;20025;-91
2022/10/17 09:41:47;;;;;;;6.60;2.17;;;20.80;99.90;;;;;;5050991;28;20086;-91
2022/10/17 09:44:22;;;;;;;5.55;2.42;;;20.90;99.90;;;;;;5051039;28;20541;-90
2022/10/17 09:47:11;;;;;;;10.88;3.22;;;20.80;99.90;;;;;;5056273;28;20042;-90
2022/10/17 09:49:42;;;;;;;8.55;2.53;;;20.90;99.90;;;;;;5070670;28;20033;-92
2022/10/17 09:52:46;;;;;;;9.65;2.67;;;20.90;99.90;;;;;;5065589;28;20036;-89
2022/10/17 09:55:39;;;;;;;9.68;2.22;;;21.00;99.90;;;;;;5055568;28;20108;-89
2022/10/17 09:58:07;;;;;;;8.63;2.33;;;21.10;99.90;;;;;;5036893;28;20033;-90
2022/10/17 10:00:34;;;;;;;9.35;2.30;;;21.10;99.90;;;;;;5050644;28;20148;-92
2022/10/17 10:03:18;;;;;;;13.73;2.53;;;21.20;99.90;;;;;;5050173;28;20037;-87
2022/10/17 10:06:00;;;;;;;9.77;2.45;;;21.20;99.90;;;;;;5050785;28;20037;-93
2022/10/17 10:08:31;;;;;;;5.30;2.30;;;21.20;99.90;;;;;;5050653;28;20024;-87
2022/10/17 10:10:59;;;;;;;6.43;2.20;;;21.30;99.90;;;;;;5049676;28;20059;-89
2022/10/17 10:13:26;;;;;;;4.68;2.45;;;21.30;99.90;;;;;;5046245;28;20056;-91
2022/10/17 10:15:52;;;;;;;6.82;2.33;;;21.30;99.90;;;;;;5070233;28;20118;-91
2022/10/17 10:18:23;;;;;;;9.60;2.33;;;21.40;99.90;;;;;;5063333;28;20033;-89
2022/10/17 10:21:06;;;;;;;15.82;2.40;;;21.50;99.90;;;;;;5055609;28;20064;-91
2022/10/17 10:23:33;;;;;;;6.18;2.40;;;21.50;99.90;;;;;;5047133;28;20028;-87
2022/10/17 10:26:02;;;;;;;7.28;2.70;;;21.40;99.90;;;;;;5066069;28;20036;-89
2022/10/17 10:28:36;;;;;;;12.02;2.65;;;21.60;99.90;;;;;;5050837;28;20029;-87
2022/10/17 10:31:07;;;;;;;9.13;2.20;;;21.70;99.90;;;;;;5039933;28;20028;-91
2022/10/17 10:33:42;;;;;;;10.50;2.60;;;21.70;99.90;;;;;;5067623;28;20028;-91
2022/10/17 10:36:08;;;;;;;6.20;2.40;;;21.80;99.90;;;;;;5060955;28;20118;-88
2022/10/17 10:38:38;;;;;;;10.48;2.20;;;21.90;99.90;;;;;;5048607;28;20031;-90
2022/10/17 10:41:08;;;;;;;4.82;2.28;;;21.90;99.90;;;;;;5070359;28;20040;-93
2022/10/17 10:43:39;;;;;;;8.75;3.08;;;21.90;99.90;;;;;;5062987;28;20468;-92
2022/10/17 10:46:16;;;;;;;11.52;2.47;;;22.00;99.90;;;;;;5069177;28;20044;-89
2022/10/17 10:49:27;;;;;;;9.55;2.63;;;22.00;99.90;;;;;;5063982;28;20059;-85
2022/10/17 10:51:53;;;;;;;20.55;2.78;;;22.10;99.90;;;;;;5056607;28;20033;-90
2022/10/17 10:54:28;;;;;;;8.52;2.38;;;22.10;99.90;;;;;;5065215;28;20029;-84
2022/10/17 10:56:58;;;;;;;7.32;2.85;;;22.00;99.90;;;;;;5063113;28;20022;-90
2022/10/17 10:59:50;;;;;;;9.57;2.45;;;22.00;99.90;;;;;;5064397;28;20183;-88
2022/10/17 11:02:47;;;;;;;14.10;2.90;;;22.00;99.90;;;;;;5045175;28;20047;-87
2022/10/17 11:05:21;;;;;;;8.93;2.67;;;22.00;99.90;;;;;;5060214;28;20040;-91
2022/10/17 11:08:26;;;;;;;11.13;2.33;;;22.00;99.90;;;;;;5063004;28;20064;-89
2022/10/17 11:11:16;;;;;;;6.45;1.75;;;22.20;99.90;;;;;;5041795;28;20090;-90
2022/10/17 11:13:56;;;;;;;14.60;3.00;;;22.20;99.90;;;;;;5067984;28;20021;-88
2022/10/17 11:16:29;;;;;;;6.15;2.40;;;22.30;99.90;;;;;;5060241;28;20032;-89
2022/10/17 11:19:13;;;;;;;8.90;3.25;;;22.40;99.90;;;;;;5049995;28;20499;-88
2022/10/17 11:22:12;;;;;;;13.25;2.45;;;22.50;99.90;;;;;;5064479;28;20391;-87
2022/10/17 11:24:58;;;;;;;3.08;1.77;;;22.60;99.90;;;;;;5064850;28;20499;-90
2022/10/17 11:27:26;;;;;;;10.90;2.17;;;22.70;99.90;;;;;;5063320;28;20036;-88
2022/10/17 11:29:52;;;;;;;6.75;1.98;;;22.80;99.90;;;;;;5055636;28;20032;-89
2022/10/17 11:32:31;;;;;;;3.05;1.75;;;22.90;99.90;;;;;;5059355;28;20036;-86
2022/10/17 11:35:05;;;;;;;6.10;2.20;;;23.00;99.90;;;;;;5020734;28;20057;-90
2022/10/17 11:37:39;;;;;;;6.03;2.27;;;23.00;99.90;;;;;;5016426;28;20470;-90
2022/10/17 11:40:20;;;;;;;5.57;2.03;;;23.10;99.90;;;;;;5010153;28;20127;-90
2022/10/17 11:42:56;;;;;;;7.47;1.90;;;23.10;99.90;;;;;;5018507;28;20026;-90
2022/10/17 11:45:25;;;;;;;11.10;2.83;;;23.10;99.90;;;;;;5020203;28;20114;-90
2022/10/17 11:47:56;;;;;;;4.35;2.20;;;23.10;99.90;;;;;;5009515;28;20069;-89
2022/10/17 11:50:30;;;;;;;6.25;1.83;;;23.20;99.90;;;;;;5011157;28;20090;-90
2022/10/17 11:53:07;;;;;;;13.90;1.85;;;23.30;99.90;;;;;;5011612;28;20034;-91
2022/10/17 11:55:34;;;;;;;6.15;1.88;;;23.30;99.90;;;;;;5018881;28;20052;-89
2022/10/17 11:58:22;;;;;;;4.88;1.80;;;23.40;99.90;;;;;;5026943;28;20029;-88
2022/10/17 12:01:23;;;;;;;9.60;2.20;;;23.40;99.90;;;;;;5009061;28;20541;-88
2022/10/17 12:04:12;;;;;;;12.07;2.22;;;23.50;99.90;;;;;;5026748;28;20033;-93
2022/10/17 12:06:49;;;;;;;9.90;2.28;;;23.50;99.90;;;;;;4982824;28;20069;-92
2022/10/17 12:09:39;;;;;;;9.95;2.25;;;23.60;99.90;;;;;;5026042;28;20037;-89
2022/10/17 12:12:05;;;;;;;7.50;1.85;;;23.60;99.90;;;;;;5011722;28;20037;-93
2022/10/17 12:14:45;;;;;;;5.97;2.17;;;23.70;99.90;;;;;;5026126;28;20120;-92
2022/10/17 12:17:29;;;;;;;7.65;2.20;;;23.70;99.90;;;;;;5018196;28;20044;-91
2022/10/17 12:20:17;;;;;;;5.88;2.75;;;23.90;99.90;;;;;;5016608;28;20033;-89
2022/10/17 12:22:47;;;;;;;10.13;2.10;;;24.00;99.90;;;;;;5029571;28;20080;-89
2022/10/17 12:25:29;;;;;;;17.13;2.45;;;24.00;99.90;;;;;;5025158;28;20029;-88
2022/10/17 12:28:17;;;;;;;9.63;1.80;;;23.90;99.90;;;;;;4996883;28;20026;-87
2022/10/17 12:30:58;;;;;;;8.20;1.80;;;23.90;99.90;;;;;;5030516;28;20029;-88
2022/10/17 12:33:30;;;;;;;9.35;1.63;;;23.80;99.90;;;;;;5022828;28;20040;-88
2022/10/17 12:36:26;;;;;;;4.82;1.85;;;23.90;99.90;;;;;;5044216;28;20049;-92
2022/10/17 12:39:13;;;;;;;16.13;1.92;;;24.00;99.90;;;;;;5039705;28;20029;-91
2022/10/17 12:41:52;;;;;;;6.32;1.92;;;24.10;99.90;;;;;;5043517;28;20061;-89
2022/10/17 12:44:21;;;;;;;9.05;2.05;;;24.20;99.90;;;;;;5035640;28;20214;-88
2022/10/17 12:46:54;;;;;;;12.98;2.50;;;24.30;99.90;;;;;;5039708;28;20071;-88
2022/10/17 12:49:38;;;;;;;9.38;1.88;;;24.40;99.90;;;;;;5032891;28;20029;-88
2022/10/17 12:52:28;;;;;;;2.10;1.52;;;24.40;99.90;;;;;;5035184;28;20029;-90
2022/10/17 12:55:02;;;;;;;8.18;2.15;;;24.40;99.90;;;;;;5022697;28;20108;-92
2022/10/17 12:57:57;;;;;;;10.03;2.17;;;24.40;99.90;;;;;;5032738;28;20153;-89
2022/10/17 13:00:50;;;;;;;10.20;1.83;;;24.30;99.90;;;;;;5039269;28;20060;-89
2022/10/17 13:03:20;;;;;;;5.35;1.60;;;24.10;99.90;;;;;;5029118;28;20050;-89
2022/10/17 13:06:06;;;;;;;4.78;2.20;;;24.00;99.90;;;;;;5037765;28;20095;-89
2022/10/17 13:08:43;;;;;;;3.67;1.88;;;24.00;99.90;;;;;;5038163;28;20033;-89
2022/10/17 13:11:10;;;;;;;11.88;1.77;;;24.00;99.90;;;;;;5045786;28;20081;-92
2022/10/17 13:13:48;;;;;;;9.02;2.50;;;24.00;99.90;;;;;;5031154;28;20029;-90
2022/10/17 13:16:31;;;;;;;4.90;1.63;;;23.90;99.90;;;;;;5041979;28;20108;-87
2022/10/17 13:18:58;;;;;;;7.05;2.10;;;23.90;99.90;;;;;;5035889;28;20430;-91
2022/10/17 13:21:24;;;;;;;7.28;1.60;;;24.00;99.90;;;;;;5032131;28;20474;-92
2022/10/17 13:23:51;;;;;;;11.65;1.88;;;24.10;99.90;;;;;;5027449;28;20041;-92
2022/10/17 13:26:20;;;;;;;10.70;1.98;;;24.10;99.90;;;;;;5030560;28;20037;-91
2022/10/17 13:29:10;;;;;;;6.22;2.17;;;24.30;99.90;;;;;;5029640;28;20025;-88
2022/10/17 13:31:38;;;;;;;12.00;2.53;;;24.30;99.90;;;;;;5028304;28;20036;-88